map of KMNI home
Great Circle Mapper logo
KMNI - Airport
Location
City:  Manning, South Carolina, United States
Name:Santee Cooper Regional
ICAO:KMNI
FAA:MNI

Details
Type:Airport (Airfield)
Use:Public/Civil
Latitude:3335'14"N (33.587111)
Longitude:8012'31"W (-80.208666)
Datum:WGS 1984
Elevation:103 ft (31 m)
Runways:1
Longest:3602 × 75 ft (1098 × 23 m), paved

Time
Time Zone:UTC-5 (DST-4)
Local Time:

Weather
METAR:KMNI 240215Z AUTO 02008G16KT 7SM OVC033 16/13 A3022 RMK AO2

Related Locations
Nearby:
Farthest:MGV: 11563 mi / 18610 km
Margaret River, WA, AU

Find:

   beyond  
but within

Other Information
Maps:
NOTAMs:
Links:
Sources:

  
flag of United States
flag of South Carolina
  

Sectional Chart

Flight Planning
at skyvector.com

Satellite Image

Google Maps Satellite View

 

Copyright © 2004-2014 Karl L. Swartz. All rights reserved.
The Great Circle Mapper name and logo are trademarks of the Great Circle Mapper.
All other trademarks mentioned herein belong to their respective owners.
Please see credits for attibutions and further copyright information.

  Follow gcmap on Facebook Follow gcmap on Twitter

hCard Microformat

Geo Microformat